FAPN

Pilanesberg International Airport

Airport
ICAO code
FAPN
IATA Code
NTY
Summary
ICAO Region
AFI
ICAO Territory
Location

, North-West

Serving
Pilanesberg
Elevation
3412 ft
Coordinates
25° 20' 2" S , 27° 10' 24" E
Metar
FAPN 241000Z AUTO 19004G15KT //// // ////// 31/16 Q1020

Runways

Designator Length Width Surface Rops
5/23 2750 30 ASP No/No

Airport map

Aerial View

SKYbrary Partners:

Safety knowledge contributed by: